sensor_id;sensor_type;location;lat;lon;timestamp;P1;durP1;ratioP1;P2;durP2;ratioP2
12385;SDS011;6257;57.634;18.310;2022-09-27T00:00:36;3.87;;;1.17;;
12385;SDS011;6257;57.634;18.310;2022-09-27T00:03:04;1.97;;;1.07;;
12385;SDS011;6257;57.634;18.310;2022-09-27T00:05:31;1.97;;;1.17;;
12385;SDS011;6257;57.634;18.310;2022-09-27T00:07:58;4.03;;;1.27;;
12385;SDS011;6257;57.634;18.310;2022-09-27T00:10:25;1.77;;;1.10;;
12385;SDS011;6257;57.634;18.310;2022-09-27T00:12:54;2.03;;;1.00;;
12385;SDS011;6257;57.634;18.310;2022-09-27T00:15:21;5.10;;;1.10;;
12385;SDS011;6257;57.634;18.310;2022-09-27T00:17:48;2.30;;;1.23;;
12385;SDS011;6257;57.634;18.310;2022-09-27T00:20:16;2.47;;;1.07;;
12385;SDS011;6257;57.634;18.310;2022-09-27T00:22:45;2.70;;;1.37;;
12385;SDS011;6257;57.634;18.310;2022-09-27T00:25:12;5.93;;;1.20;;
12385;SDS011;6257;57.634;18.310;2022-09-27T00:27:39;1.83;;;1.10;;
12385;SDS011;6257;57.634;18.310;2022-09-27T00:30:09;1.40;;;1.10;;
12385;SDS011;6257;57.634;18.310;2022-09-27T00:32:37;2.57;;;1.10;;
12385;SDS011;6257;57.634;18.310;2022-09-27T00:35:04;1.30;;;1.07;;
12385;SDS011;6257;57.634;18.310;2022-09-27T00:37:31;2.27;;;1.00;;
12385;SDS011;6257;57.634;18.310;2022-09-27T00:39:58;1.37;;;0.90;;
12385;SDS011;6257;57.634;18.310;2022-09-27T00:42:26;2.27;;;0.93;;
12385;SDS011;6257;57.634;18.310;2022-09-27T00:47:45;3.90;;;1.23;;
12385;SDS011;6257;57.634;18.310;2022-09-27T00:50:22;2.07;;;1.03;;
12385;SDS011;6257;57.634;18.310;2022-09-27T00:52:56;1.33;;;1.00;;
12385;SDS011;6257;57.634;18.310;2022-09-27T00:55:30;3.63;;;1.10;;
12385;SDS011;6257;57.634;18.310;2022-09-27T00:58:02;1.57;;;1.00;;
12385;SDS011;6257;57.634;18.310;2022-09-27T01:00:31;3.37;;;1.20;;
12385;SDS011;6257;57.634;18.310;2022-09-27T01:02:58;1.93;;;1.17;;
12385;SDS011;6257;57.634;18.310;2022-09-27T01:05:29;2.80;;;1.10;;
12385;SDS011;6257;57.634;18.310;2022-09-27T01:07:56;5.43;;;3.97;;
12385;SDS011;6257;57.634;18.310;2022-09-27T01:10:25;3.17;;;2.10;;
12385;SDS011;6257;57.634;18.310;2022-09-27T01:12:58;4.33;;;2.50;;
12385;SDS011;6257;57.634;18.310;2022-09-27T01:15:36;3.70;;;1.90;;
12385;SDS011;6257;57.634;18.310;2022-09-27T01:18:12;5.33;;;1.40;;
12385;SDS011;6257;57.634;18.310;2022-09-27T01:21:00;1.77;;;1.00;;
12385;SDS011;6257;57.634;18.310;2022-09-27T01:24:02;2.07;;;1.00;;
12385;SDS011;6257;57.634;18.310;2022-09-27T01:26:59;2.60;;;0.80;;
12385;SDS011;6257;57.634;18.310;2022-09-27T01:29:50;1.90;;;1.10;;
12385;SDS011;6257;57.634;18.310;2022-09-27T01:32:31;3.67;;;1.37;;
12385;SDS011;6257;57.634;18.310;2022-09-27T01:35:06;1.50;;;1.00;;
12385;SDS011;6257;57.634;18.310;2022-09-27T01:37:42;1.87;;;1.00;;
12385;SDS011;6257;57.634;18.310;2022-09-27T01:40:19;1.80;;;0.90;;
12385;SDS011;6257;57.634;18.310;2022-09-27T01:42:52;1.27;;;0.93;;
12385;SDS011;6257;57.634;18.310;2022-09-27T01:45:24;1.43;;;0.90;;
12385;SDS011;6257;57.634;18.310;2022-09-27T01:47:58;3.23;;;1.17;;
12385;SDS011;6257;57.634;18.310;2022-09-27T01:50:29;4.10;;;1.17;;
12385;SDS011;6257;57.634;18.310;2022-09-27T01:53:00;3.40;;;1.10;;
12385;SDS011;6257;57.634;18.310;2022-09-27T01:55:33;2.60;;;1.30;;
12385;SDS011;6257;57.634;18.310;2022-09-27T01:58:04;1.20;;;1.03;;
12385;SDS011;6257;57.634;18.310;2022-09-27T02:00:40;2.10;;;1.20;;
12385;SDS011;6257;57.634;18.310;2022-09-27T02:03:11;1.13;;;0.97;;
12385;SDS011;6257;57.634;18.310;2022-09-27T02:05:41;2.23;;;1.37;;
12385;SDS011;6257;57.634;18.310;2022-09-27T02:08:12;3.83;;;1.20;;
12385;SDS011;6257;57.634;18.310;2022-09-27T02:10:43;1.73;;;1.10;;
12385;SDS011;6257;57.634;18.310;2022-09-27T02:13:15;2.20;;;1.20;;
12385;SDS011;6257;57.634;18.310;2022-09-27T02:15:47;1.57;;;1.17;;
12385;SDS011;6257;57.634;18.310;2022-09-27T02:18:24;2.80;;;1.50;;
12385;SDS011;6257;57.634;18.310;2022-09-27T02:20:57;2.30;;;1.50;;
12385;SDS011;6257;57.634;18.310;2022-09-27T02:23:28;3.50;;;1.20;;
12385;SDS011;6257;57.634;18.310;2022-09-27T02:26:02;1.13;;;1.03;;
12385;SDS011;6257;57.634;18.310;2022-09-27T02:28:36;2.80;;;1.23;;
12385;SDS011;6257;57.634;18.310;2022-09-27T02:31:08;3.77;;;1.00;;
12385;SDS011;6257;57.634;18.310;2022-09-27T02:33:39;2.60;;;1.00;;
12385;SDS011;6257;57.634;18.310;2022-09-27T02:36:10;3.90;;;1.20;;
12385;SDS011;6257;57.634;18.310;2022-09-27T02:38:37;1.93;;;1.00;;
12385;SDS011;6257;57.634;18.310;2022-09-27T02:41:11;1.27;;;1.00;;
12385;SDS011;6257;57.634;18.310;2022-09-27T02:43:39;1.47;;;0.97;;
12385;SDS011;6257;57.634;18.310;2022-09-27T02:46:13;1.50;;;0.90;;
12385;SDS011;6257;57.634;18.310;2022-09-27T02:48:55;1.33;;;1.20;;
12385;SDS011;6257;57.634;18.310;2022-09-27T02:51:33;1.73;;;1.00;;
12385;SDS011;6257;57.634;18.310;2022-09-27T02:54:12;2.47;;;1.20;;
12385;SDS011;6257;57.634;18.310;2022-09-27T02:56:49;1.10;;;1.00;;
12385;SDS011;6257;57.634;18.310;2022-09-27T02:59:27;4.13;;;1.10;;
12385;SDS011;6257;57.634;18.310;2022-09-27T03:02:03;3.10;;;1.13;;
12385;SDS011;6257;57.634;18.310;2022-09-27T03:04:38;1.00;;;0.80;;
12385;SDS011;6257;57.634;18.310;2022-09-27T03:07:09;3.07;;;1.27;;
12385;SDS011;6257;57.634;18.310;2022-09-27T03:09:42;2.40;;;1.23;;
12385;SDS011;6257;57.634;18.310;2022-09-27T03:12:10;1.93;;;1.30;;
12385;SDS011;6257;57.634;18.310;2022-09-27T03:14:37;3.27;;;1.20;;
12385;SDS011;6257;57.634;18.310;2022-09-27T03:17:04;2.80;;;1.20;;
12385;SDS011;6257;57.634;18.310;2022-09-27T03:19:31;2.97;;;1.40;;
12385;SDS011;6257;57.634;18.310;2022-09-27T03:22:00;2.60;;;1.13;;
12385;SDS011;6257;57.634;18.310;2022-09-27T03:24:27;1.33;;;1.10;;
12385;SDS011;6257;57.634;18.310;2022-09-27T03:26:54;1.27;;;1.13;;
12385;SDS011;6257;57.634;18.310;2022-09-27T03:29:21;2.93;;;1.23;;
12385;SDS011;6257;57.634;18.310;2022-09-27T03:31:48;1.50;;;1.40;;
12385;SDS011;6257;57.634;18.310;2022-09-27T03:34:15;2.03;;;1.30;;
12385;SDS011;6257;57.634;18.310;2022-09-27T03:36:42;2.73;;;1.40;;
12385;SDS011;6257;57.634;18.310;2022-09-27T03:39:11;2.00;;;1.20;;
12385;SDS011;6257;57.634;18.310;2022-09-27T03:41:38;2.37;;;1.47;;
12385;SDS011;6257;57.634;18.310;2022-09-27T03:44:05;1.77;;;1.40;;
12385;SDS011;6257;57.634;18.310;2022-09-27T03:46:33;2.53;;;1.30;;
12385;SDS011;6257;57.634;18.310;2022-09-27T03:49:00;1.50;;;1.20;;
12385;SDS011;6257;57.634;18.310;2022-09-27T03:51:27;1.90;;;1.27;;
12385;SDS011;6257;57.634;18.310;2022-09-27T03:53:54;2.00;;;1.43;;
12385;SDS011;6257;57.634;18.310;2022-09-27T03:56:23;2.60;;;1.40;;
12385;SDS011;6257;57.634;18.310;2022-09-27T03:58:50;4.00;;;1.47;;
12385;SDS011;6257;57.634;18.310;2022-09-27T04:01:17;2.00;;;1.30;;
12385;SDS011;6257;57.634;18.310;2022-09-27T04:03:44;3.53;;;2.00;;
12385;SDS011;6257;57.634;18.310;2022-09-27T04:06:12;2.07;;;1.80;;
12385;SDS011;6257;57.634;18.310;2022-09-27T04:08:39;2.33;;;1.77;;
12385;SDS011;6257;57.634;18.310;2022-09-27T04:11:06;4.13;;;1.40;;
12385;SDS011;6257;57.634;18.310;2022-09-27T04:13:35;2.20;;;1.50;;
12385;SDS011;6257;57.634;18.310;2022-09-27T04:16:02;2.80;;;1.57;;
12385;SDS011;6257;57.634;18.310;2022-09-27T04:18:29;2.27;;;1.60;;
12385;SDS011;6257;57.634;18.310;2022-09-27T04:20:57;3.80;;;2.00;;
12385;SDS011;6257;57.634;18.310;2022-09-27T04:23:24;3.20;;;1.90;;
12385;SDS011;6257;57.634;18.310;2022-09-27T04:25:52;3.47;;;2.07;;
12385;SDS011;6257;57.634;18.310;2022-09-27T04:28:19;4.00;;;2.20;;
12385;SDS011;6257;57.634;18.310;2022-09-27T04:30:48;4.70;;;2.73;;
12385;SDS011;6257;57.634;18.310;2022-09-27T04:33:15;4.73;;;3.13;;
12385;SDS011;6257;57.634;18.310;2022-09-27T04:35:42;5.27;;;2.63;;
12385;SDS011;6257;57.634;18.310;2022-09-27T04:38:26;4.30;;;2.27;;
12385;SDS011;6257;57.634;18.310;2022-09-27T04:40:54;2.90;;;2.10;;
12385;SDS011;6257;57.634;18.310;2022-09-27T04:43:21;4.67;;;2.30;;
12385;SDS011;6257;57.634;18.310;2022-09-27T04:45:50;5.80;;;2.07;;
12385;SDS011;6257;57.634;18.310;2022-09-27T04:48:18;2.80;;;2.40;;
12385;SDS011;6257;57.634;18.310;2022-09-27T04:50:45;3.27;;;2.53;;
12385;SDS011;6257;57.634;18.310;2022-09-27T04:53:12;3.17;;;2.37;;
12385;SDS011;6257;57.634;18.310;2022-09-27T04:55:43;4.87;;;2.77;;
12385;SDS011;6257;57.634;18.310;2022-09-27T04:58:11;3.87;;;2.47;;
12385;SDS011;6257;57.634;18.310;2022-09-27T05:00:38;3.57;;;2.80;;
12385;SDS011;6257;57.634;18.310;2022-09-27T05:03:08;4.83;;;3.00;;
12385;SDS011;6257;57.634;18.310;2022-09-27T05:05:35;4.13;;;2.70;;
12385;SDS011;6257;57.634;18.310;2022-09-27T05:08:03;3.73;;;2.60;;
12385;SDS011;6257;57.634;18.310;2022-09-27T05:10:30;3.50;;;2.77;;
12385;SDS011;6257;57.634;18.310;2022-09-27T05:12:57;3.20;;;2.30;;
12385;SDS011;6257;57.634;18.310;2022-09-27T05:15:24;4.43;;;2.50;;
12385;SDS011;6257;57.634;18.310;2022-09-27T05:17:51;4.93;;;2.97;;
12385;SDS011;6257;57.634;18.310;2022-09-27T05:20:20;3.47;;;2.57;;
12385;SDS011;6257;57.634;18.310;2022-09-27T05:22:47;4.90;;;2.70;;
12385;SDS011;6257;57.634;18.310;2022-09-27T05:25:14;3.50;;;2.87;;
12385;SDS011;6257;57.634;18.310;2022-09-27T05:27:41;3.67;;;2.70;;
12385;SDS011;6257;57.634;18.310;2022-09-27T05:30:08;4.17;;;3.00;;
12385;SDS011;6257;57.634;18.310;2022-09-27T05:32:38;5.10;;;2.80;;
12385;SDS011;6257;57.634;18.310;2022-09-27T05:35:08;3.87;;;3.03;;
12385;SDS011;6257;57.634;18.310;2022-09-27T05:37:36;4.80;;;3.30;;
12385;SDS011;6257;57.634;18.310;2022-09-27T05:40:05;5.40;;;3.67;;
12385;SDS011;6257;57.634;18.310;2022-09-27T05:42:32;6.97;;;3.90;;
12385;SDS011;6257;57.634;18.310;2022-09-27T05:45:03;5.80;;;3.63;;
12385;SDS011;6257;57.634;18.310;2022-09-27T05:47:31;5.80;;;3.47;;
12385;SDS011;6257;57.634;18.310;2022-09-27T05:49:58;4.00;;;3.57;;
12385;SDS011;6257;57.634;18.310;2022-09-27T05:52:25;5.57;;;3.93;;
12385;SDS011;6257;57.634;18.310;2022-09-27T05:54:54;5.90;;;4.10;;
12385;SDS011;6257;57.634;18.310;2022-09-27T05:57:22;6.03;;;3.80;;
12385;SDS011;6257;57.634;18.310;2022-09-27T05:59:50;6.37;;;3.50;;
12385;SDS011;6257;57.634;18.310;2022-09-27T06:02:17;3.87;;;3.40;;
12385;SDS011;6257;57.634;18.310;2022-09-27T06:04:44;5.43;;;3.60;;
12385;SDS011;6257;57.634;18.310;2022-09-27T06:07:11;6.10;;;3.47;;
12385;SDS011;6257;57.634;18.310;2022-09-27T06:09:38;4.67;;;3.23;;
12385;SDS011;6257;57.634;18.310;2022-09-27T06:12:07;3.80;;;3.23;;
12385;SDS011;6257;57.634;18.310;2022-09-27T06:14:36;4.20;;;3.07;;
12385;SDS011;6257;57.634;18.310;2022-09-27T06:17:03;3.63;;;3.13;;
12385;SDS011;6257;57.634;18.310;2022-09-27T06:19:30;5.30;;;3.30;;
12385;SDS011;6257;57.634;18.310;2022-09-27T06:21:58;4.67;;;3.30;;
12385;SDS011;6257;57.634;18.310;2022-09-27T06:24:25;3.10;;;2.80;;
12385;SDS011;6257;57.634;18.310;2022-09-27T06:26:52;3.40;;;3.10;;
12385;SDS011;6257;57.634;18.310;2022-09-27T06:29:20;4.97;;;3.50;;
12385;SDS011;6257;57.634;18.310;2022-09-27T06:31:47;3.80;;;3.10;;
12385;SDS011;6257;57.634;18.310;2022-09-27T06:34:14;4.20;;;3.57;;
12385;SDS011;6257;57.634;18.310;2022-09-27T06:36:41;7.07;;;3.90;;
12385;SDS011;6257;57.634;18.310;2022-09-27T06:39:11;5.47;;;3.57;;
12385;SDS011;6257;57.634;18.310;2022-09-27T06:41:38;3.43;;;3.13;;
12385;SDS011;6257;57.634;18.310;2022-09-27T06:44:05;6.10;;;4.43;;
12385;SDS011;6257;57.634;18.310;2022-09-27T06:46:33;4.47;;;4.07;;
12385;SDS011;6257;57.634;18.310;2022-09-27T06:49:02;5.30;;;3.80;;
12385;SDS011;6257;57.634;18.310;2022-09-27T06:51:30;5.30;;;4.17;;
12385;SDS011;6257;57.634;18.310;2022-09-27T06:53:57;6.00;;;3.90;;
12385;SDS011;6257;57.634;18.310;2022-09-27T06:56:24;4.40;;;3.70;;
12385;SDS011;6257;57.634;18.310;2022-09-27T06:58:51;6.63;;;4.40;;
12385;SDS011;6257;57.634;18.310;2022-09-27T07:01:37;6.83;;;4.50;;
12385;SDS011;6257;57.634;18.310;2022-09-27T07:04:04;4.73;;;4.33;;
12385;SDS011;6257;57.634;18.310;2022-09-27T07:06:33;5.33;;;4.83;;
12385;SDS011;6257;57.634;18.310;2022-09-27T07:09:02;6.87;;;5.50;;
12385;SDS011;6257;57.634;18.310;2022-09-27T07:11:30;6.67;;;5.40;;
12385;SDS011;6257;57.634;18.310;2022-09-27T07:14:00;10.03;;;8.30;;
12385;SDS011;6257;57.634;18.310;2022-09-27T07:16:28;8.27;;;7.47;;
12385;SDS011;6257;57.634;18.310;2022-09-27T07:18:57;9.17;;;7.80;;
12385;SDS011;6257;57.634;18.310;2022-09-27T07:21:24;7.90;;;7.00;;
12385;SDS011;6257;57.634;18.310;2022-09-27T07:23:51;7.77;;;6.97;;
12385;SDS011;6257;57.634;18.310;2022-09-27T07:26:18;8.50;;;7.63;;
12385;SDS011;6257;57.634;18.310;2022-09-27T07:28:45;8.50;;;7.40;;
12385;SDS011;6257;57.634;18.310;2022-09-27T07:31:14;8.77;;;7.97;;
12385;SDS011;6257;57.634;18.310;2022-09-27T07:33:41;9.67;;;8.67;;
12385;SDS011;6257;57.634;18.310;2022-09-27T07:36:10;9.87;;;8.87;;
12385;SDS011;6257;57.634;18.310;2022-09-27T07:38:38;9.90;;;8.90;;
12385;SDS011;6257;57.634;18.310;2022-09-27T07:41:06;9.50;;;8.60;;
12385;SDS011;6257;57.634;18.310;2022-09-27T07:43:33;11.10;;;10.03;;
12385;SDS011;6257;57.634;18.310;2022-09-27T07:46:00;12.13;;;10.63;;
12385;SDS011;6257;57.634;18.310;2022-09-27T07:48:28;12.90;;;11.17;;
12385;SDS011;6257;57.634;18.310;2022-09-27T07:50:55;13.17;;;11.53;;
12385;SDS011;6257;57.634;18.310;2022-09-27T07:53:23;13.37;;;10.83;;
12385;SDS011;6257;57.634;18.310;2022-09-27T07:55:50;11.60;;;10.30;;
12385;SDS011;6257;57.634;18.310;2022-09-27T07:58:18;12.00;;;10.80;;
12385;SDS011;6257;57.634;18.310;2022-09-27T08:00:46;16.67;;;13.00;;
12385;SDS011;6257;57.634;18.310;2022-09-27T08:03:13;17.47;;;13.40;;
12385;SDS011;6257;57.634;18.310;2022-09-27T08:05:43;16.00;;;14.17;;
12385;SDS011;6257;57.634;18.310;2022-09-27T08:08:11;19.83;;;16.23;;
12385;SDS011;6257;57.634;18.310;2022-09-27T08:10:40;18.00;;;16.10;;
12385;SDS011;6257;57.634;18.310;2022-09-27T08:13:11;17.53;;;15.40;;
12385;SDS011;6257;57.634;18.310;2022-09-27T08:15:39;20.27;;;17.17;;
12385;SDS011;6257;57.634;18.310;2022-09-27T08:18:06;21.60;;;17.77;;
12385;SDS011;6257;57.634;18.310;2022-09-27T08:20:34;21.63;;;18.93;;
12385;SDS011;6257;57.634;18.310;2022-09-27T08:23:02;25.77;;;21.40;;
12385;SDS011;6257;57.634;18.310;2022-09-27T08:25:29;23.53;;;20.97;;
12385;SDS011;6257;57.634;18.310;2022-09-27T08:27:58;26.33;;;22.57;;
12385;SDS011;6257;57.634;18.310;2022-09-27T08:30:28;28.17;;;23.77;;
12385;SDS011;6257;57.634;18.310;2022-09-27T08:32:57;26.40;;;22.33;;
12385;SDS011;6257;57.634;18.310;2022-09-27T08:35:25;26.60;;;22.47;;
12385;SDS011;6257;57.634;18.310;2022-09-27T08:37:53;24.43;;;21.30;;
12385;SDS011;6257;57.634;18.310;2022-09-27T08:40:24;23.07;;;19.37;;
12385;SDS011;6257;57.634;18.310;2022-09-27T08:43:02;18.20;;;14.83;;
12385;SDS011;6257;57.634;18.310;2022-09-27T08:45:38;11.37;;;8.97;;
12385;SDS011;6257;57.634;18.310;2022-09-27T08:48:21;8.90;;;6.80;;
12385;SDS011;6257;57.634;18.310;2022-09-27T08:50:53;6.93;;;4.77;;
12385;SDS011;6257;57.634;18.310;2022-09-27T08:53:21;11.27;;;4.70;;
12385;SDS011;6257;57.634;18.310;2022-09-27T08:55:53;4.93;;;4.37;;
12385;SDS011;6257;57.634;18.310;2022-09-27T08:58:24;4.77;;;4.37;;
12385;SDS011;6257;57.634;18.310;2022-09-27T09:00:55;6.60;;;5.27;;
12385;SDS011;6257;57.634;18.310;2022-09-27T09:03:24;5.97;;;5.37;;
12385;SDS011;6257;57.634;18.310;2022-09-27T09:05:59;9.03;;;6.37;;
12385;SDS011;6257;57.634;18.310;2022-09-27T09:08:38;7.93;;;6.67;;
12385;SDS011;6257;57.634;18.310;2022-09-27T09:11:18;7.77;;;6.57;;
12385;SDS011;6257;57.634;18.310;2022-09-27T09:14:33;8.27;;;7.10;;
12385;SDS011;6257;57.634;18.310;2022-09-27T09:17:12;7.50;;;6.57;;
12385;SDS011;6257;57.634;18.310;2022-09-27T09:19:53;9.70;;;5.57;;
12385;SDS011;6257;57.634;18.310;2022-09-27T09:22:32;6.97;;;5.93;;
12385;SDS011;6257;57.634;18.310;2022-09-27T09:25:17;6.30;;;5.70;;
12385;SDS011;6257;57.634;18.310;2022-09-27T09:27:52;7.23;;;5.80;;
12385;SDS011;6257;57.634;18.310;2022-09-27T09:30:29;8.43;;;6.47;;
12385;SDS011;6257;57.634;18.310;2022-09-27T09:33:10;7.03;;;6.20;;
12385;SDS011;6257;57.634;18.310;2022-09-27T09:35:47;7.10;;;6.40;;
12385;SDS011;6257;57.634;18.310;2022-09-27T09:38:21;8.20;;;7.30;;
12385;SDS011;6257;57.634;18.310;2022-09-27T09:40:54;8.30;;;7.37;;
12385;SDS011;6257;57.634;18.310;2022-09-27T09:43:27;8.70;;;7.40;;
12385;SDS011;6257;57.634;18.310;2022-09-27T09:46:01;9.63;;;8.47;;
12385;SDS011;6257;57.634;18.310;2022-09-27T09:48:35;9.07;;;7.97;;
12385;SDS011;6257;57.634;18.310;2022-09-27T09:51:07;8.63;;;7.73;;
12385;SDS011;6257;57.634;18.310;2022-09-27T09:53:39;10.43;;;8.60;;
12385;SDS011;6257;57.634;18.310;2022-09-27T09:56:13;12.90;;;9.20;;
12385;SDS011;6257;57.634;18.310;2022-09-27T09:58:46;9.07;;;8.17;;
12385;SDS011;6257;57.634;18.310;2022-09-27T10:01:19;11.97;;;8.90;;
12385;SDS011;6257;57.634;18.310;2022-09-27T10:03:48;10.83;;;9.37;;
12385;SDS011;6257;57.634;18.310;2022-09-27T10:06:15;10.47;;;9.47;;
12385;SDS011;6257;57.634;18.310;2022-09-27T10:08:44;11.77;;;10.53;;
12385;SDS011;6257;57.634;18.310;2022-09-27T10:11:15;11.70;;;10.60;;
12385;SDS011;6257;57.634;18.310;2022-09-27T10:13:46;13.47;;;12.07;;
12385;SDS011;6257;57.634;18.310;2022-09-27T10:16:15;14.93;;;12.60;;
12385;SDS011;6257;57.634;18.310;2022-09-27T10:18:46;15.33;;;12.80;;
12385;SDS011;6257;57.634;18.310;2022-09-27T10:21:16;14.37;;;12.87;;
12385;SDS011;6257;57.634;18.310;2022-09-27T10:24:05;15.97;;;14.37;;
12385;SDS011;6257;57.634;18.310;2022-09-27T10:26:34;16.17;;;14.47;;
12385;SDS011;6257;57.634;18.310;2022-09-27T10:29:13;20.33;;;18.17;;
12385;SDS011;6257;57.634;18.310;2022-09-27T10:31:50;21.70;;;18.87;;
12385;SDS011;6257;57.634;18.310;2022-09-27T10:34:27;25.53;;;22.80;;
12385;SDS011;6257;57.634;18.310;2022-09-27T10:37:01;28.20;;;24.77;;
12385;SDS011;6257;57.634;18.310;2022-09-27T10:39:31;34.00;;;26.53;;
12385;SDS011;6257;57.634;18.310;2022-09-27T10:41:59;27.40;;;24.53;;
12385;SDS011;6257;57.634;18.310;2022-09-27T10:44:27;26.27;;;23.47;;
12385;SDS011;6257;57.634;18.310;2022-09-27T10:46:57;26.13;;;23.23;;
12385;SDS011;6257;57.634;18.310;2022-09-27T10:49:33;27.77;;;24.93;;
12385;SDS011;6257;57.634;18.310;2022-09-27T10:52:03;26.60;;;23.80;;
12385;SDS011;6257;57.634;18.310;2022-09-27T10:54:34;27.57;;;23.13;;
12385;SDS011;6257;57.634;18.310;2022-09-27T10:57:05;26.43;;;23.63;;
12385;SDS011;6257;57.634;18.310;2022-09-27T10:59:46;25.53;;;21.90;;
12385;SDS011;6257;57.634;18.310;2022-09-27T11:02:18;24.77;;;21.73;;
12385;SDS011;6257;57.634;18.310;2022-09-27T11:07:34;23.77;;;21.37;;
12385;SDS011;6257;57.634;18.310;2022-09-27T11:10:14;23.87;;;21.17;;
12385;SDS011;6257;57.634;18.310;2022-09-27T11:13:04;21.83;;;19.53;;
12385;SDS011;6257;57.634;18.310;2022-09-27T11:15:33;21.50;;;19.03;;
12385;SDS011;6257;57.634;18.310;2022-09-27T11:18:11;20.87;;;18.83;;
12385;SDS011;6257;57.634;18.310;2022-09-27T11:20:48;21.87;;;19.60;;
12385;SDS011;6257;57.634;18.310;2022-09-27T11:23:25;23.20;;;19.23;;
12385;SDS011;6257;57.634;18.310;2022-09-27T11:26:11;21.80;;;19.50;;
12385;SDS011;6257;57.634;18.310;2022-09-27T11:28:50;20.67;;;18.50;;
12385;SDS011;6257;57.634;18.310;2022-09-27T11:31:26;20.53;;;18.27;;
12385;SDS011;6257;57.634;18.310;2022-09-27T11:34:03;20.50;;;18.40;;
12385;SDS011;6257;57.634;18.310;2022-09-27T11:37:00;20.70;;;18.60;;
12385;SDS011;6257;57.634;18.310;2022-09-27T11:39:38;20.90;;;18.50;;
12385;SDS011;6257;57.634;18.310;2022-09-27T11:42:21;17.73;;;15.93;;
12385;SDS011;6257;57.634;18.310;2022-09-27T11:45:09;19.20;;;17.20;;
12385;SDS011;6257;57.634;18.310;2022-09-27T11:47:48;19.50;;;16.53;;
12385;SDS011;6257;57.634;18.310;2022-09-27T11:50:48;19.50;;;17.50;;
12385;SDS011;6257;57.634;18.310;2022-09-27T11:53:41;19.10;;;16.63;;
12385;SDS011;6257;57.634;18.310;2022-09-27T11:56:26;18.63;;;16.70;;
12385;SDS011;6257;57.634;18.310;2022-09-27T11:59:12;17.87;;;15.53;;
12385;SDS011;6257;57.634;18.310;2022-09-27T12:01:55;17.67;;;15.87;;
12385;SDS011;6257;57.634;18.310;2022-09-27T12:04:35;18.07;;;16.23;;
12385;SDS011;6257;57.634;18.310;2022-09-27T12:07:23;17.43;;;15.20;;
12385;SDS011;6257;57.634;18.310;2022-09-27T12:09:59;17.47;;;15.67;;
12385;SDS011;6257;57.634;18.310;2022-09-27T12:12:31;17.03;;;14.57;;
12385;SDS011;6257;57.634;18.310;2022-09-27T12:15:01;16.07;;;14.37;;
12385;SDS011;6257;57.634;18.310;2022-09-27T12:17:32;16.50;;;14.83;;
12385;SDS011;6257;57.634;18.310;2022-09-27T12:20:02;16.07;;;14.37;;
12385;SDS011;6257;57.634;18.310;2022-09-27T12:22:36;18.03;;;16.13;;
12385;SDS011;6257;57.634;18.310;2022-09-27T12:25:17;16.80;;;15.07;;
12385;SDS011;6257;57.634;18.310;2022-09-27T12:27:46;18.70;;;16.30;;
12385;SDS011;6257;57.634;18.310;2022-09-27T12:30:16;20.33;;;16.23;;
12385;SDS011;6257;57.634;18.310;2022-09-27T12:32:45;17.47;;;14.73;;
12385;SDS011;6257;57.634;18.310;2022-09-27T12:35:20;16.20;;;14.70;;
12385;SDS011;6257;57.634;18.310;2022-09-27T12:37:51;16.13;;;13.73;;
12385;SDS011;6257;57.634;18.310;2022-09-27T12:40:25;16.20;;;14.60;;
12385;SDS011;6257;57.634;18.310;2022-09-27T12:42:56;16.60;;;14.80;;
12385;SDS011;6257;57.634;18.310;2022-09-27T12:45:30;16.40;;;13.87;;
12385;SDS011;6257;57.634;18.310;2022-09-27T12:48:05;16.27;;;14.57;;
12385;SDS011;6257;57.634;18.310;2022-09-27T12:50:39;16.40;;;13.97;;
12385;SDS011;6257;57.634;18.310;2022-09-27T12:53:11;15.33;;;13.67;;
12385;SDS011;6257;57.634;18.310;2022-09-27T12:56:08;15.87;;;14.27;;
12385;SDS011;6257;57.634;18.310;2022-09-27T12:58:48;13.80;;;12.40;;
12385;SDS011;6257;57.634;18.310;2022-09-27T13:01:34;14.37;;;12.87;;
12385;SDS011;6257;57.634;18.310;2022-09-27T13:04:20;15.23;;;13.40;;
12385;SDS011;6257;57.634;18.310;2022-09-27T13:07:11;14.60;;;13.03;;
12385;SDS011;6257;57.634;18.310;2022-09-27T13:09:53;14.70;;;13.20;;
12385;SDS011;6257;57.634;18.310;2022-09-27T13:12:31;16.17;;;13.37;;
12385;SDS011;6257;57.634;18.310;2022-09-27T13:14:59;16.60;;;13.57;;
12385;SDS011;6257;57.634;18.310;2022-09-27T13:17:39;14.10;;;12.60;;
12385;SDS011;6257;57.634;18.310;2022-09-27T13:26:43;14.80;;;13.30;;
12385;SDS011;6257;57.634;18.310;2022-09-27T13:29:26;17.83;;;13.63;;
12385;SDS011;6257;57.634;18.310;2022-09-27T13:32:02;14.67;;;13.10;;
12385;SDS011;6257;57.634;18.310;2022-09-27T13:34:41;14.57;;;13.10;;
12385;SDS011;6257;57.634;18.310;2022-09-27T13:43:03;16.23;;;12.80;;
12385;SDS011;6257;57.634;18.310;2022-09-27T13:45:52;13.70;;;12.30;;
12385;SDS011;6257;57.634;18.310;2022-09-27T13:48:23;16.83;;;13.97;;
12385;SDS011;6257;57.634;18.310;2022-09-27T13:50:52;14.23;;;12.83;;
12385;SDS011;6257;57.634;18.310;2022-09-27T13:53:24;14.90;;;13.40;;
12385;SDS011;6257;57.634;18.310;2022-09-27T13:55:55;15.30;;;13.63;;
12385;SDS011;6257;57.634;18.310;2022-09-27T13:58:29;14.63;;;13.17;;
12385;SDS011;6257;57.634;18.310;2022-09-27T14:01:13;14.97;;;13.47;;
12385;SDS011;6257;57.634;18.310;2022-09-27T14:03:45;15.10;;;13.40;;
12385;SDS011;6257;57.634;18.310;2022-09-27T14:06:19;13.50;;;11.83;;
12385;SDS011;6257;57.634;18.310;2022-09-27T14:08:50;12.93;;;11.60;;
12385;SDS011;6257;57.634;18.310;2022-09-27T14:11:20;12.53;;;11.23;;
12385;SDS011;6257;57.634;18.310;2022-09-27T14:13:51;13.60;;;12.20;;
12385;SDS011;6257;57.634;18.310;2022-09-27T14:16:21;13.73;;;12.33;;
12385;SDS011;6257;57.634;18.310;2022-09-27T14:18:50;13.80;;;12.37;;
12385;SDS011;6257;57.634;18.310;2022-09-27T14:21:25;13.57;;;11.63;;
12385;SDS011;6257;57.634;18.310;2022-09-27T14:27:02;12.27;;;10.97;;
12385;SDS011;6257;57.634;18.310;2022-09-27T14:29:42;12.73;;;11.27;;
12385;SDS011;6257;57.634;18.310;2022-09-27T14:32:14;12.10;;;10.90;;
12385;SDS011;6257;57.634;18.310;2022-09-27T14:34:42;12.67;;;11.33;;
12385;SDS011;6257;57.634;18.310;2022-09-27T14:37:20;12.27;;;11.07;;
12385;SDS011;6257;57.634;18.310;2022-09-27T14:39:52;13.10;;;11.40;;
12385;SDS011;6257;57.634;18.310;2022-09-27T14:42:22;11.77;;;10.33;;
12385;SDS011;6257;57.634;18.310;2022-09-27T14:44:51;15.57;;;12.03;;
12385;SDS011;6257;57.634;18.310;2022-09-27T14:47:21;12.13;;;10.83;;
12385;SDS011;6257;57.634;18.310;2022-09-27T14:49:49;12.23;;;10.83;;
12385;SDS011;6257;57.634;18.310;2022-09-27T14:52:18;14.40;;;12.27;;
12385;SDS011;6257;57.634;18.310;2022-09-27T14:54:58;12.57;;;11.27;;
12385;SDS011;6257;57.634;18.310;2022-09-27T14:57:28;13.77;;;11.63;;
12385;SDS011;6257;57.634;18.310;2022-09-27T14:59:58;13.53;;;10.70;;
12385;SDS011;6257;57.634;18.310;2022-09-27T15:02:38;14.83;;;12.47;;
12385;SDS011;6257;57.634;18.310;2022-09-27T15:05:11;14.40;;;12.70;;
12385;SDS011;6257;57.634;18.310;2022-09-27T15:07:40;16.20;;;12.90;;
12385;SDS011;6257;57.634;18.310;2022-09-27T15:10:11;14.17;;;11.40;;
12385;SDS011;6257;57.634;18.310;2022-09-27T15:12:41;13.23;;;11.87;;
12385;SDS011;6257;57.634;18.310;2022-09-27T15:15:12;14.23;;;12.50;;
12385;SDS011;6257;57.634;18.310;2022-09-27T15:17:43;14.10;;;12.57;;
12385;SDS011;6257;57.634;18.310;2022-09-27T15:20:18;12.97;;;11.63;;
12385;SDS011;6257;57.634;18.310;2022-09-27T15:22:48;12.77;;;11.50;;
12385;SDS011;6257;57.634;18.310;2022-09-27T15:25:26;15.33;;;12.67;;